Jefferson, MD

9:28 AM EDT on October 20, 2014 (GMT -0400)
WXFRNX | Change Station
CLOSE
Current Station
Personal Weather Station
Location: Jefferson, MD
Elevation: 597 ft
Nearby Weather Stations

Elev 597 ft 39.37 °N, 77.53 °W | Updated 3 minutes ago

Partly Cloudy
Partly Cloudy
43.8 °F
Feels Like 44 °F
N
0.0
Wind Variable Wind from South
Gusts 0.0 mph

Today
High -- | Low -- °F
--% Chance of Precip.
Yesterday
High -- | Low -- °F
Precip. -- in
7:25 AM 6:24 PM
Waning Crescent, 11% visible
Pressure 30.15 in
Visibility 10.0 miles
Clouds Clear
Windchill 44 °F
Dew Point 40 °F
Humidity 86%
Rainfall 0.00 in
Snow Depth Not available.
UV 0.8 out of 12
Pollen 1.70 out of 12
Air Quality Not available.
Flu Activity Sporadic
METAR KFDK 201245Z 00000KT 10SM SKC 07/04 A3015

More Conditions Fewer Conditions

Pressure 30.15 in
Visibility 10.0 miles
Clouds Clear
Windchill 44 °F
Dew Point 40 °F
Humidity 86%
Rainfall 0.00 in
Snow Depth Not available.
UV 0.8 out of 12
Pollen 1.70 out of 12
Air Quality Not available.
Flu Activity Sporadic
METAR KFDK 201245Z 00000KT 10SM SKC 07/04 A3015

More Conditions Fewer Conditions

10-Day Weather Forecast

Almanac

Astronomy

Oct. 20, 2014 Rise Set
Actual Time 7:25 AM EDT 6:24 PM EDT
Civil Twilight 6:58 AM EDT 6:51 PM EDT
Nautical Twilight 6:26 AM EDT 7:22 PM EDT
Astronomical Twilight 5:55 AM EDT 7:53 PM EDT
Moon 4:12 AM EDT 4:45 PM EDT
Length of Visible Light 11h 53m
Length of Day
10h 58m
Waning Crescent, 11% of the Moon is Illuminated
Today
Waning Crescent
Oct 23
New
Oct 30
First Quarter
Nov 6
Full
Nov 14
Last Quarter

Today's Extremes

State Highs State Lows

Community

WunderPhotos

Upload Photos

1,763,378 photos uploaded!

Nearby

Snow Depth

Station Depth Elevation
No new snow has been reported.

Earthquake Activity

City Distance Mag. Time & Date
No recent earthquake activity has been reported nearby.
Minimum magnitude displayed is 2.5.

Coastal Water Temperatures

Place Temperature
No Stations Reporting

Nearby Weather Stations